createdAt,value
2023-01-19T00:01:29.862Z,3.44
2023-01-19T00:03:57.180Z,3.34
2023-01-19T00:06:24.564Z,3.38
2023-01-19T00:08:52.098Z,3.35
2023-01-19T00:11:20.128Z,3.37
2023-01-19T00:13:50.677Z,3.37
2023-01-19T00:16:19.564Z,3.40
2023-01-19T00:18:47.657Z,3.50
2023-01-19T00:21:14.926Z,3.30
2023-01-19T00:23:43.788Z,3.30
2023-01-19T00:26:11.018Z,3.44
2023-01-19T00:28:38.287Z,3.20
2023-01-19T00:31:06.133Z,3.23
2023-01-19T00:33:33.383Z,3.39
2023-01-19T00:36:01.086Z,3.20
2023-01-19T00:38:28.399Z,3.22
2023-01-19T00:40:55.767Z,3.10
2023-01-19T00:43:23.061Z,2.98
2023-01-19T00:45:50.370Z,2.97
2023-01-19T00:48:18.058Z,2.95
2023-01-19T00:50:45.388Z,3.06
2023-01-19T00:53:12.773Z,3.05
2023-01-19T00:55:40.108Z,2.97
2023-01-19T00:58:07.460Z,3.43
2023-01-19T01:00:35.170Z,3.23
2023-01-19T01:03:03.391Z,3.02
2023-01-19T01:05:31.393Z,2.94
2023-01-19T01:07:58.789Z,2.87
2023-01-19T01:10:29.038Z,2.86
2023-01-19T01:12:59.270Z,2.81
2023-01-19T01:15:28.117Z,2.81
2023-01-19T01:17:55.893Z,2.87
2023-01-19T01:20:27.773Z,2.83
2023-01-19T01:22:56.523Z,2.89
2023-01-19T01:25:25.543Z,2.71
2023-01-19T01:27:53.363Z,2.73
2023-01-19T01:30:21.614Z,2.78
2023-01-19T01:32:50.089Z,2.66
2023-01-19T01:35:17.598Z,2.72
2023-01-19T01:37:45.353Z,2.52
2023-01-19T01:40:15.688Z,2.77
2023-01-19T01:42:44.087Z,2.53
2023-01-19T01:45:38.340Z,2.40
2023-01-19T01:48:11.747Z,2.27
2023-01-19T01:51:04.804Z,2.29
2023-01-19T01:53:34.850Z,2.19
2023-01-19T01:56:07.375Z,2.06
2023-01-19T01:58:36.000Z,2.02
2023-01-19T02:01:37.610Z,1.91
2023-01-19T02:04:05.205Z,1.93
2023-01-19T02:06:32.665Z,1.97
2023-01-19T02:09:27.337Z,1.89
2023-01-19T02:12:14.113Z,1.93
2023-01-19T02:14:41.430Z,1.85
2023-01-19T02:17:09.139Z,1.86
2023-01-19T02:19:42.085Z,1.83
2023-01-19T02:22:20.640Z,1.79
2023-01-19T02:24:49.828Z,1.82
2023-01-19T02:27:17.640Z,1.51
2023-01-19T02:29:45.161Z,1.54
2023-01-19T02:32:12.841Z,1.59
2023-01-19T02:34:40.749Z,1.68
2023-01-19T02:37:12.200Z,1.36
2023-01-19T02:39:48.352Z,1.25
2023-01-19T02:42:24.016Z,1.27
2023-01-19T02:44:54.516Z,1.21
2023-01-19T02:47:23.052Z,1.09
2023-01-19T02:49:58.552Z,1.14
2023-01-19T02:52:26.807Z,0.88
2023-01-19T02:55:19.856Z,0.85
2023-01-19T02:58:01.601Z,0.75
2023-01-19T03:00:44.705Z,0.85
2023-01-19T03:03:30.800Z,0.87
2023-01-19T03:06:06.841Z,0.87
2023-01-19T03:08:56.018Z,0.97
2023-01-19T03:11:29.519Z,1.09
2023-01-19T03:14:02.934Z,0.91
2023-01-19T03:16:44.114Z,0.88
2023-01-19T03:19:27.304Z,0.87
2023-01-19T03:22:00.337Z,0.92
2023-01-19T03:24:31.680Z,0.85
2023-01-19T03:27:04.062Z,0.88
2023-01-19T03:29:34.839Z,0.81
2023-01-19T03:32:09.271Z,0.85
2023-01-19T03:34:39.406Z,0.86
2023-01-19T03:37:08.529Z,0.92
2023-01-19T03:39:36.134Z,0.94
2023-01-19T03:42:08.339Z,0.90
2023-01-19T03:44:38.420Z,0.97
2023-01-19T03:47:07.422Z,1.11
2023-01-19T03:49:36.278Z,1.08
2023-01-19T03:52:04.169Z,1.16
2023-01-19T03:54:32.153Z,1.16
2023-01-19T03:56:59.546Z,1.13
2023-01-19T03:59:26.912Z,1.03
2023-01-19T04:01:54.253Z,1.14
2023-01-19T04:04:21.631Z,1.47
2023-01-19T04:06:49.389Z,1.22
2023-01-19T04:09:19.189Z,1.34
2023-01-19T04:11:46.540Z,1.23
2023-01-19T04:14:13.832Z,1.18
2023-01-19T04:16:41.092Z,1.37
2023-01-19T04:19:08.398Z,1.36
2023-01-19T04:21:35.949Z,1.29
2023-01-19T04:24:04.333Z,1.30
2023-01-19T04:26:31.688Z,1.27
2023-01-19T04:28:59.103Z,1.29
2023-01-19T04:31:26.499Z,1.40
2023-01-19T04:33:55.870Z,1.31
2023-01-19T04:36:23.088Z,1.28
2023-01-19T04:38:50.385Z,1.39
2023-01-19T04:41:18.594Z,1.58
2023-01-19T04:43:47.660Z,1.17
2023-01-19T04:46:15.293Z,1.15
2023-01-19T04:48:43.128Z,1.10
2023-01-19T04:51:10.509Z,0.97
2023-01-19T04:53:37.787Z,0.88
2023-01-19T04:56:06.007Z,1.03
2023-01-19T04:58:33.263Z,1.19
2023-01-19T05:01:00.707Z,1.06
2023-01-19T05:03:27.985Z,1.45
2023-01-19T05:05:55.561Z,1.22
2023-01-19T05:08:23.088Z,1.21
2023-01-19T05:10:50.560Z,1.14
2023-01-19T05:13:17.882Z,1.19
2023-01-19T05:15:45.171Z,1.21
2023-01-19T05:18:13.067Z,1.19
2023-01-19T05:20:41.280Z,1.22
2023-01-19T05:23:08.612Z,1.06
2023-01-19T05:25:36.043Z,1.13
2023-01-19T05:28:03.990Z,1.01
2023-01-19T05:30:31.645Z,0.96
2023-01-19T05:32:59.388Z,0.82
2023-01-19T05:35:35.554Z,0.78
2023-01-19T05:38:04.145Z,0.90
2023-01-19T05:40:31.424Z,1.11
2023-01-19T05:43:02.005Z,1.01
2023-01-19T05:45:30.050Z,1.06
2023-01-19T05:47:57.432Z,1.05
2023-01-19T05:50:25.333Z,1.13
2023-01-19T05:52:55.642Z,1.31
2023-01-19T05:55:22.949Z,1.12
2023-01-19T05:57:50.222Z,1.30
2023-01-19T06:00:18.075Z,1.42
2023-01-19T06:02:49.337Z,1.49
2023-01-19T06:05:17.252Z,1.48
2023-01-19T06:07:44.605Z,1.51
2023-01-19T06:10:12.174Z,1.36
2023-01-19T06:12:41.545Z,1.54
2023-01-19T06:15:09.278Z,1.59
2023-01-19T06:17:36.982Z,1.62
2023-01-19T06:20:05.360Z,1.68
2023-01-19T06:22:32.939Z,1.80
2023-01-19T06:25:00.399Z,2.00
2023-01-19T06:27:27.956Z,1.95
2023-01-19T06:29:55.666Z,1.96
2023-01-19T06:32:23.006Z,2.06
2023-01-19T06:34:53.266Z,2.07
2023-01-19T06:37:21.410Z,2.11
2023-01-19T06:39:48.682Z,2.13
2023-01-19T06:42:16.407Z,1.91
2023-01-19T06:44:47.445Z,2.12
2023-01-19T06:47:17.723Z,2.34
2023-01-19T06:49:45.423Z,2.35
2023-01-19T06:52:15.943Z,2.19
2023-01-19T06:54:45.454Z,2.09
2023-01-19T06:57:13.918Z,2.14
2023-01-19T06:59:41.350Z,2.35
2023-01-19T07:02:26.293Z,2.10
2023-01-19T07:04:56.702Z,2.02
2023-01-19T07:07:24.066Z,1.94
2023-01-19T07:09:54.021Z,2.04
2023-01-19T07:12:22.493Z,2.03
2023-01-19T07:14:50.447Z,2.10
2023-01-19T07:17:17.785Z,2.08
2023-01-19T07:19:46.276Z,2.16
2023-01-19T07:22:13.729Z,2.28
2023-01-19T07:24:41.626Z,2.60
2023-01-19T07:27:11.535Z,2.44
2023-01-19T07:29:39.345Z,2.40
2023-01-19T07:32:07.564Z,2.25
2023-01-19T07:34:35.986Z,2.10
2023-01-19T07:37:04.487Z,2.08
2023-01-19T07:39:32.082Z,2.02
2023-01-19T07:41:59.783Z,2.28
2023-01-19T07:44:27.228Z,2.48
2023-01-19T07:46:54.486Z,2.12
2023-01-19T07:49:21.755Z,2.02
2023-01-19T07:51:49.606Z,1.84
2023-01-19T07:54:16.929Z,1.77
2023-01-19T07:56:44.194Z,1.76
2023-01-19T07:59:12.106Z,1.54
2023-01-19T08:01:40.930Z,1.46
2023-01-19T08:04:08.354Z,1.31
2023-01-19T08:06:39.021Z,1.26
2023-01-19T08:09:07.213Z,1.32
2023-01-19T08:11:34.556Z,1.37
2023-01-19T08:14:02.509Z,1.58
2023-01-19T08:16:30.322Z,1.98
2023-01-19T08:18:57.606Z,1.79
2023-01-19T08:21:24.955Z,1.70
2023-01-19T08:23:56.470Z,1.43
2023-01-19T08:26:28.122Z,1.56
2023-01-19T08:28:58.089Z,1.48
2023-01-19T08:31:26.906Z,1.69
2023-01-19T08:33:55.039Z,2.06
2023-01-19T08:36:23.008Z,2.30
2023-01-19T08:38:50.488Z,2.41
2023-01-19T08:41:18.210Z,2.41
2023-01-19T08:43:45.661Z,2.13
2023-01-19T08:46:17.578Z,2.35
2023-01-19T08:48:45.508Z,2.26
2023-01-19T08:51:12.805Z,2.43
2023-01-19T08:53:41.521Z,2.45
2023-01-19T08:56:13.913Z,2.03
2023-01-19T08:58:43.459Z,1.85
2023-01-19T09:01:14.655Z,1.95
2023-01-19T09:03:42.929Z,1.94
2023-01-19T09:06:13.111Z,1.89
2023-01-19T09:08:40.680Z,2.07
2023-01-19T09:11:13.066Z,1.75
2023-01-19T09:13:41.436Z,1.72
2023-01-19T09:16:12.696Z,1.48
2023-01-19T09:18:40.087Z,1.27
2023-01-19T09:21:08.244Z,1.23
2023-01-19T09:23:35.713Z,1.42
2023-01-19T09:26:05.550Z,1.26
2023-01-19T09:28:34.044Z,1.29
2023-01-19T09:31:09.155Z,1.20
2023-01-19T09:33:36.583Z,1.16
2023-01-19T09:36:04.047Z,1.00
2023-01-19T09:38:33.001Z,1.01
2023-01-19T09:41:01.098Z,1.04
2023-01-19T09:43:43.393Z,1.39
2023-01-19T09:46:22.785Z,1.41
2023-01-19T09:48:54.006Z,1.48
2023-01-19T09:51:28.945Z,1.57
2023-01-19T09:54:20.755Z,1.44
2023-01-19T09:56:52.356Z,1.77
2023-01-19T09:59:31.625Z,1.34
2023-01-19T10:02:28.002Z,1.88
2023-01-19T10:05:22.296Z,1.63
2023-01-19T10:08:20.220Z,1.58
2023-01-19T10:10:53.368Z,1.94
2023-01-19T10:13:29.692Z,1.77
2023-01-19T10:16:14.572Z,1.46
2023-01-19T10:18:48.185Z,1.41
2023-01-19T10:21:26.433Z,1.60
2023-01-19T10:24:25.804Z,1.59
2023-01-19T10:26:56.276Z,2.05
2023-01-19T10:29:37.293Z,1.97
2023-01-19T10:32:19.881Z,2.13
2023-01-19T10:34:49.219Z,2.27
2023-01-19T10:37:29.428Z,2.20
2023-01-19T10:40:25.475Z,2.34
2023-01-19T10:42:53.196Z,2.16
2023-01-19T10:45:25.883Z,2.27
2023-01-19T10:47:54.705Z,2.48
2023-01-19T10:50:24.303Z,2.34
2023-01-19T10:52:54.145Z,1.94
2023-01-19T10:55:30.521Z,1.84
2023-01-19T10:57:59.305Z,1.71
2023-01-19T11:00:30.329Z,1.85
2023-01-19T11:02:57.846Z,1.95
2023-01-19T11:05:30.365Z,1.67
2023-01-19T11:07:58.612Z,1.64
2023-01-19T11:10:28.423Z,1.51
2023-01-19T11:12:57.496Z,1.52
2023-01-19T11:15:27.521Z,1.51
2023-01-19T11:17:55.249Z,1.85
2023-01-19T11:20:24.650Z,1.83
2023-01-19T11:23:19.792Z,2.04
2023-01-19T11:25:49.232Z,1.80
2023-01-19T11:28:30.149Z,1.90
2023-01-19T11:31:00.998Z,1.86
2023-01-19T11:33:36.090Z,1.75
2023-01-19T11:36:07.447Z,1.80
2023-01-19T11:38:43.527Z,1.76
2023-01-19T11:41:21.989Z,1.70
2023-01-19T11:43:54.032Z,1.86
2023-01-19T11:46:23.627Z,1.84
2023-01-19T11:49:22.117Z,1.66
2023-01-19T11:52:18.451Z,1.51
2023-01-19T11:54:54.872Z,1.51
2023-01-19T11:57:22.692Z,1.47
2023-01-19T11:59:52.813Z,1.39
2023-01-19T12:02:30.404Z,1.50
2023-01-19T12:05:07.341Z,1.55
2023-01-19T12:07:37.492Z,1.38
2023-01-19T12:10:31.536Z,1.30
2023-01-19T12:13:00.384Z,1.51
2023-01-19T12:15:31.480Z,1.40
2023-01-19T12:18:02.199Z,1.77
2023-01-19T12:20:38.998Z,1.85
2023-01-19T12:23:25.138Z,1.47
2023-01-19T12:26:29.487Z,1.42
2023-01-19T12:29:04.164Z,1.42
2023-01-19T12:31:31.785Z,1.45
2023-01-19T12:34:25.060Z,1.66
2023-01-19T12:36:55.468Z,1.44
2023-01-19T12:39:25.141Z,1.24
2023-01-19T12:42:14.827Z,1.50
2023-01-19T12:44:44.105Z,1.27
2023-01-19T12:47:13.005Z,1.71
2023-01-19T12:49:53.075Z,1.73
2023-01-19T12:52:34.563Z,1.39
2023-01-19T12:55:14.322Z,1.46
2023-01-19T12:57:48.115Z,1.39
2023-01-19T13:00:37.278Z,1.69
2023-01-19T13:03:17.789Z,1.45
2023-01-19T13:05:48.878Z,1.34
2023-01-19T13:08:19.349Z,1.56
2023-01-19T13:10:59.345Z,1.77
2023-01-19T13:13:32.829Z,1.44
2023-01-19T13:16:20.301Z,1.62
2023-01-19T13:18:53.446Z,1.21
2023-01-19T13:21:30.369Z,1.33
2023-01-19T13:24:19.303Z,1.08
2023-01-19T13:26:49.735Z,1.09
2023-01-19T13:29:34.519Z,1.07
2023-01-19T13:32:05.650Z,0.89
2023-01-19T13:34:40.540Z,0.83
2023-01-19T13:37:18.160Z,0.79
2023-01-19T13:39:50.131Z,0.76
2023-01-19T13:42:37.744Z,0.70
2023-01-19T13:45:24.753Z,0.82
2023-01-19T13:47:52.925Z,1.27
2023-01-19T13:50:23.436Z,0.91
2023-01-19T13:52:53.801Z,0.88
2023-01-19T13:55:22.880Z,0.83
2023-01-19T13:57:53.892Z,0.81
2023-01-19T14:00:24.514Z,0.83
2023-01-19T14:02:57.066Z,0.89
2023-01-19T14:05:42.415Z,0.78
2023-01-19T14:08:13.160Z,0.93
2023-01-19T14:10:47.505Z,0.79
2023-01-19T14:13:20.062Z,0.94
2023-01-19T14:15:49.258Z,0.86
2023-01-19T14:18:16.677Z,1.13
2023-01-19T14:21:14.444Z,1.04
2023-01-19T14:23:50.999Z,1.46
2023-01-19T14:26:41.677Z,1.05
2023-01-19T14:29:15.434Z,0.81
2023-01-19T14:31:45.064Z,0.78
2023-01-19T14:34:43.796Z,0.88
2023-01-19T14:37:47.085Z,0.64
2023-01-19T14:40:20.405Z,0.76
2023-01-19T14:42:53.845Z,0.83
2023-01-19T14:45:23.344Z,0.92
2023-01-19T14:48:05.338Z,0.99
2023-01-19T14:50:36.628Z,0.95
2023-01-19T14:53:07.067Z,1.47
2023-01-19T14:55:50.830Z,1.47
2023-01-19T14:58:20.099Z,1.28
2023-01-19T15:00:49.130Z,1.13
2023-01-19T15:03:17.044Z,0.94
2023-01-19T15:05:46.869Z,0.85
2023-01-19T15:08:22.997Z,0.90
2023-01-19T15:10:51.171Z,0.98
2023-01-19T15:13:23.805Z,0.83
2023-01-19T15:15:51.785Z,0.81
2023-01-19T15:18:26.772Z,1.05
2023-01-19T15:21:02.712Z,1.08
2023-01-19T15:23:31.123Z,1.03
2023-01-19T15:26:01.372Z,1.04
2023-01-19T15:28:29.772Z,0.88
2023-01-19T15:30:59.210Z,0.66
2023-01-19T15:33:32.997Z,0.67
2023-01-19T15:36:00.312Z,1.00
2023-01-19T15:38:28.111Z,1.05
2023-01-19T15:40:55.779Z,1.20
2023-01-19T15:43:23.067Z,0.92
2023-01-19T15:46:01.902Z,0.81
2023-01-19T15:48:29.559Z,0.98
2023-01-19T15:50:57.378Z,1.20
2023-01-19T15:53:27.179Z,0.93
2023-01-19T15:55:56.774Z,0.84
2023-01-19T15:58:25.018Z,0.96
2023-01-19T16:00:58.208Z,1.28
2023-01-19T16:03:26.601Z,1.40
2023-01-19T16:05:53.891Z,1.28
2023-01-19T16:08:22.052Z,0.82
2023-01-19T16:10:49.877Z,0.71
2023-01-19T16:13:17.193Z,0.80
2023-01-19T16:15:44.467Z,1.02
2023-01-19T16:18:12.216Z,1.33
2023-01-19T16:20:39.542Z,1.19
2023-01-19T16:23:14.977Z,0.99
2023-01-19T16:25:42.972Z,1.02
2023-01-19T16:28:10.285Z,1.41
2023-01-19T16:30:37.623Z,1.82
2023-01-19T16:33:05.516Z,1.67
2023-01-19T16:35:32.798Z,1.76
2023-01-19T16:38:00.173Z,1.32
2023-01-19T16:40:27.486Z,1.21
2023-01-19T16:42:54.819Z,1.10
2023-01-19T16:45:22.660Z,1.13
2023-01-19T16:47:52.180Z,1.06
2023-01-19T16:50:19.889Z,1.30
2023-01-19T16:52:47.849Z,1.54
2023-01-19T16:55:15.147Z,1.63
2023-01-19T16:57:42.981Z,1.52
2023-01-19T17:00:11.451Z,1.64
2023-01-19T17:02:39.766Z,1.35
2023-01-19T17:05:07.575Z,1.24
2023-01-19T17:07:34.941Z,1.12
2023-01-19T17:10:02.295Z,1.08
2023-01-19T17:12:32.154Z,1.15
2023-01-19T17:14:59.700Z,1.40
2023-01-19T17:17:27.058Z,1.50
2023-01-19T17:19:54.345Z,1.44
2023-01-19T17:22:21.745Z,1.44
2023-01-19T17:24:49.864Z,1.41
2023-01-19T17:27:17.311Z,1.31
2023-01-19T17:29:44.548Z,1.42
2023-01-19T17:32:12.390Z,1.47
2023-01-19T17:34:39.720Z,1.38
2023-01-19T17:37:07.612Z,1.55
2023-01-19T17:39:35.309Z,1.63
2023-01-19T17:42:03.864Z,1.87
2023-01-19T17:44:31.250Z,1.59
2023-01-19T17:46:59.940Z,1.51
2023-01-19T17:49:30.493Z,1.61
2023-01-19T17:51:58.263Z,1.55
2023-01-19T17:54:25.661Z,1.77
2023-01-19T17:56:53.382Z,1.82
2023-01-19T17:59:20.677Z,1.77
2023-01-19T18:01:48.398Z,1.72
2023-01-19T18:04:16.296Z,2.02
2023-01-19T18:06:45.038Z,2.26
2023-01-19T18:09:12.454Z,2.22
2023-01-19T18:11:39.766Z,2.24
2023-01-19T18:14:07.486Z,2.38
2023-01-19T18:16:35.885Z,2.52
2023-01-19T18:19:03.617Z,2.59
2023-01-19T18:21:30.966Z,2.32
2023-01-19T18:24:01.359Z,2.50
2023-01-19T18:26:30.162Z,2.00
2023-01-19T18:28:58.421Z,1.99
2023-01-19T18:31:26.724Z,1.98
2023-01-19T18:33:54.168Z,2.14
2023-01-19T18:36:21.932Z,2.32
2023-01-19T18:38:50.024Z,2.58
2023-01-19T18:41:19.672Z,2.44
2023-01-19T18:43:47.609Z,2.52
2023-01-19T18:46:16.155Z,2.81
2023-01-19T18:48:43.928Z,2.66
2023-01-19T18:51:14.613Z,2.66
2023-01-19T18:53:43.040Z,2.37
2023-01-19T18:56:15.541Z,2.18
2023-01-19T18:58:44.039Z,2.31
2023-01-19T19:01:23.041Z,2.61
2023-01-19T19:03:51.891Z,2.45
2023-01-19T19:06:20.906Z,2.60
2023-01-19T19:08:52.047Z,2.47
2023-01-19T19:11:20.726Z,2.61
2023-01-19T19:13:53.729Z,2.78
2023-01-19T19:16:21.264Z,2.86
2023-01-19T19:18:51.992Z,2.90
2023-01-19T19:21:21.870Z,3.00
2023-01-19T19:23:51.889Z,3.02
2023-01-19T19:26:19.734Z,3.12
2023-01-19T19:28:47.395Z,2.91
2023-01-19T19:31:20.513Z,3.07
2023-01-19T19:33:50.814Z,2.98
2023-01-19T19:36:20.214Z,2.95
2023-01-19T19:38:48.817Z,3.07
2023-01-19T19:41:22.790Z,3.07
2023-01-19T19:43:50.746Z,3.14
2023-01-19T19:46:20.166Z,3.19
2023-01-19T19:48:48.863Z,3.16
2023-01-19T19:51:19.074Z,2.97
2023-01-19T19:53:49.555Z,3.20
2023-01-19T19:56:21.100Z,3.18
2023-01-19T19:58:50.273Z,3.23
2023-01-19T20:01:20.912Z,3.18
2023-01-19T20:03:48.919Z,3.15
2023-01-19T20:06:20.718Z,3.13
2023-01-19T20:08:48.873Z,2.92
2023-01-19T20:11:19.188Z,2.88
2023-01-19T20:13:47.679Z,2.80
2023-01-19T20:16:17.691Z,2.81
2023-01-19T20:18:54.281Z,2.87
2023-01-19T20:21:28.680Z,2.87
2023-01-19T20:24:01.047Z,2.59
2023-01-19T20:26:32.182Z,2.64
2023-01-19T20:29:08.204Z,2.49
2023-01-19T20:31:41.946Z,2.48
2023-01-19T20:34:12.025Z,2.67
2023-01-19T20:36:41.178Z,2.77
2023-01-19T20:39:10.900Z,2.60
2023-01-19T20:41:43.603Z,2.67
2023-01-19T20:44:17.094Z,2.08
2023-01-19T20:46:44.968Z,1.94
2023-01-19T20:49:12.759Z,1.47
2023-01-19T20:51:46.060Z,1.36
2023-01-19T20:54:15.696Z,1.52
2023-01-19T20:56:43.032Z,2.08
2023-01-19T20:59:11.018Z,1.78
2023-01-19T21:01:39.381Z,1.80
2023-01-19T21:04:07.657Z,1.62
2023-01-19T21:06:35.291Z,1.62
2023-01-19T21:09:03.066Z,1.70
2023-01-19T21:11:30.779Z,1.51
2023-01-19T21:13:58.230Z,1.82
2023-01-19T21:16:28.984Z,2.16
2023-01-19T21:18:56.352Z,2.52
2023-01-19T21:21:30.687Z,2.25
2023-01-19T21:24:02.504Z,2.07
2023-01-19T21:26:31.430Z,1.87
2023-01-19T21:29:00.646Z,2.11
2023-01-19T21:31:28.761Z,2.36
2023-01-19T21:33:57.591Z,2.48
2023-01-19T21:36:25.513Z,2.55
2023-01-19T21:38:55.574Z,2.70
2023-01-19T21:41:23.133Z,2.67
2023-01-19T21:43:50.359Z,2.71
2023-01-19T21:46:21.358Z,2.68
2023-01-19T21:48:48.706Z,2.37
2023-01-19T21:51:16.269Z,2.21
2023-01-19T21:53:43.685Z,1.98
2023-01-19T21:56:11.742Z,2.09
2023-01-19T21:58:39.072Z,2.07
2023-01-19T22:01:13.721Z,2.12
2023-01-19T22:03:42.901Z,2.16
2023-01-19T22:06:13.789Z,2.50
2023-01-19T22:08:41.468Z,2.72
2023-01-19T22:11:11.451Z,2.33
2023-01-19T22:13:39.083Z,2.73
2023-01-19T22:16:10.557Z,2.70
2023-01-19T22:18:40.903Z,2.34
2023-01-19T22:21:19.504Z,2.02
2023-01-19T22:23:52.320Z,1.84
2023-01-19T22:26:20.179Z,2.01
2023-01-19T22:28:47.792Z,1.87
2023-01-19T22:31:17.814Z,1.81
2023-01-19T22:33:45.619Z,1.62
2023-01-19T22:36:19.641Z,1.91
2023-01-19T22:38:52.259Z,2.24
2023-01-19T22:41:23.961Z,2.44
2023-01-19T22:43:54.783Z,2.57
2023-01-19T22:46:24.990Z,2.21
2023-01-19T22:48:54.039Z,2.26
2023-01-19T22:51:22.352Z,2.66
2023-01-19T22:53:50.393Z,2.71
2023-01-19T22:56:19.886Z,2.60
2023-01-19T22:58:47.835Z,2.70
2023-01-19T23:01:38.297Z,2.83
2023-01-19T23:04:06.634Z,2.97
2023-01-19T23:06:36.159Z,2.98
2023-01-19T23:09:06.638Z,3.01
2023-01-19T23:11:40.171Z,2.82
2023-01-19T23:14:10.258Z,2.70
2023-01-19T23:16:38.152Z,2.67
2023-01-19T23:19:05.767Z,2.69
2023-01-19T23:21:33.931Z,2.93
2023-01-19T23:24:03.321Z,2.83
2023-01-19T23:26:37.985Z,2.43
2023-01-19T23:29:15.403Z,1.99
2023-01-19T23:31:45.907Z,1.94
2023-01-19T23:34:14.288Z,2.36
2023-01-19T23:36:42.904Z,2.35
2023-01-19T23:39:19.732Z,2.22
2023-01-19T23:41:47.683Z,1.93
2023-01-19T23:44:17.111Z,1.91
2023-01-19T23:46:45.079Z,2.30
2023-01-19T23:49:13.327Z,2.22
2023-01-19T23:51:41.859Z,2.12
2023-01-19T23:54:09.455Z,2.10
2023-01-19T23:56:38.401Z,2.58
2023-01-19T23:59:15.010Z,2.79
